Time;durP1;ratioP1;P1;durP2;ratioP2;P2;SDS_P1;SDS_P2;PMS_P1;PMS_P2;Temp;Humidity;BMP_temperature;BMP_pressure;BME280_temperature;BME280_humidity;BME280_pressure;Samples;Min_cycle;Max_cycle;Signal;HPM_P1;HPM_P2
2023/09/12 00:00:50;;;;;;;4.15;1.13;;;;;;;;;;2567863;23;20466;-87
2023/09/12 00:01:50;;;;;;;1.38;1.10;;;;;;;;;;2567582;23;20409;-89
2023/09/12 00:02:50;;;;;;;3.40;1.10;;;;;;;;;;2580964;23;20030;-89
2023/09/12 00:03:51;;;;;;;2.00;1.15;;;;;;;;;;2592537;22;20000;-89
2023/09/12 00:04:51;;;;;;;4.30;1.33;;;;;;;;;;2593042;22;20004;-88
2023/09/12 00:05:53;;;;;;;1.48;0.82;;;;;;;;;;2592573;22;20087;-89
2023/09/12 00:06:53;;;;;;;1.85;0.98;;;;;;;;;;2592366;22;20450;-88
2023/09/12 00:07:54;;;;;;;2.17;1.20;;;;;;;;;;2567500;23;20007;-90
2023/09/12 00:08:54;;;;;;;3.17;1.00;;;;;;;;;;2567343;23;20425;-89
2023/09/12 00:09:54;;;;;;;3.60;1.17;;;;;;;;;;2579967;23;20065;-88
2023/09/12 00:11:12;;;;;;;1.10;0.98;;;;;;;;;;2592748;22;20006;-89
2023/09/12 00:12:15;;;;;;;3.33;1.20;;;;;;;;;;2579920;23;20086;-91
2023/09/12 00:13:16;;;;;;;1.63;0.90;;;;;;;;;;2583495;23;20022;-89
2023/09/12 00:14:17;;;;;;;3.33;0.93;;;;;;;;;;2579975;23;20430;-89
2023/09/12 00:15:19;;;;;;;2.47;0.88;;;;;;;;;;2583310;23;20067;-89
2023/09/12 00:16:20;;;;;;;1.70;1.00;;;;;;;;;;2580079;23;20046;-89
2023/09/12 00:17:20;;;;;;;3.17;1.15;;;;;;;;;;2582552;23;20146;-89
2023/09/12 00:18:20;;;;;;;3.33;1.38;;;;;;;;;;2579784;23;20001;-91
2023/09/12 00:19:21;;;;;;;1.60;1.10;;;;;;;;;;2582406;23;20010;-89
2023/09/12 00:20:21;;;;;;;1.80;1.00;;;;;;;;;;2583201;23;20047;-88
2023/09/12 00:21:22;;;;;;;1.20;1.00;;;;;;;;;;2579860;23;20449;-91
2023/09/12 00:22:22;;;;;;;0.85;0.82;;;;;;;;;;2580138;23;20004;-88
2023/09/12 00:23:23;;;;;;;3.22;1.20;;;;;;;;;;2579602;23;19996;-88
2023/09/12 00:24:23;;;;;;;2.58;1.10;;;;;;;;;;2579616;23;20015;-89
2023/09/12 00:25:24;;;;;;;1.85;1.20;;;;;;;;;;2567030;23;19997;-90
2023/09/12 00:26:24;;;;;;;1.88;1.05;;;;;;;;;;2567301;23;20318;-90
2023/09/12 00:27:25;;;;;;;2.30;1.25;;;;;;;;;;2582102;23;20307;-90
2023/09/12 00:28:25;;;;;;;2.25;0.90;;;;;;;;;;2579716;23;20497;-89
2023/09/12 00:29:25;;;;;;;3.17;1.23;;;;;;;;;;2582257;23;20264;-88
2023/09/12 00:30:26;;;;;;;1.80;1.23;;;;;;;;;;2583124;23;20000;-89
2023/09/12 00:31:26;;;;;;;2.13;1.20;;;;;;;;;;2579936;23;20453;-91
2023/09/12 00:32:27;;;;;;;1.30;0.90;;;;;;;;;;2582097;23;20004;-89
2023/09/12 00:33:27;;;;;;;2.10;0.88;;;;;;;;;;2582570;23;20067;-88
2023/09/12 00:34:27;;;;;;;2.78;1.05;;;;;;;;;;2582829;22;20040;-89
2023/09/12 00:35:28;;;;;;;1.05;0.65;;;;;;;;;;2592389;22;19991;-90
2023/09/12 00:36:28;;;;;;;1.40;0.88;;;;;;;;;;2594981;22;20004;-90
2023/09/12 00:37:28;;;;;;;2.05;0.80;;;;;;;;;;2579653;22;20071;-90
2023/09/12 00:38:29;;;;;;;4.63;1.10;;;;;;;;;;2582039;23;20113;-89
2023/09/12 00:39:30;;;;;;;2.03;1.30;;;;;;;;;;2582653;22;20071;-89
2023/09/12 00:40:30;;;;;;;3.67;1.13;;;;;;;;;;2579961;23;20073;-89
2023/09/12 00:41:31;;;;;;;2.80;0.95;;;;;;;;;;2582316;23;20537;-89
2023/09/12 00:42:31;;;;;;;2.55;0.80;;;;;;;;;;2592495;22;20023;-89
2023/09/12 00:43:31;;;;;;;1.73;0.95;;;;;;;;;;2579742;23;20402;-88
2023/09/12 00:44:32;;;;;;;1.50;0.93;;;;;;;;;;2581458;23;20004;-89
2023/09/12 00:45:32;;;;;;;1.00;0.90;;;;;;;;;;2579745;22;20079;-90
2023/09/12 00:46:34;;;;;;;1.40;0.80;;;;;;;;;;2567308;23;20004;-90
2023/09/12 00:47:36;;;;;;;1.42;0.95;;;;;;;;;;2567107;23;20022;-89
2023/09/12 00:48:38;;;;;;;0.95;0.85;;;;;;;;;;2580069;23;20016;-89
2023/09/12 00:49:39;;;;;;;1.80;1.08;;;;;;;;;;2579892;23;19996;-90
2023/09/12 00:50:40;;;;;;;2.30;1.10;;;;;;;;;;2581329;23;20501;-90
2023/09/12 00:51:42;;;;;;;1.42;0.93;;;;;;;;;;2582053;22;19996;-89
2023/09/12 00:52:43;;;;;;;1.40;0.98;;;;;;;;;;2592597;22;20029;-89
2023/09/12 00:53:44;;;;;;;2.58;1.20;;;;;;;;;;2593589;22;20003;-89
2023/09/12 00:54:44;;;;;;;1.60;0.80;;;;;;;;;;2582235;22;20019;-90
2023/09/12 00:55:51;;;;;;;1.33;0.80;;;;;;;;;;2159352;22;10001754;-90
2023/09/12 00:56:52;;;;;;;1.90;0.85;;;;;;;;;;2591262;22;20111;-89
2023/09/12 00:57:53;;;;;;;1.13;0.95;;;;;;;;;;2580541;23;20000;-88
2023/09/12 00:58:54;;;;;;;2.58;0.80;;;;;;;;;;2580002;23;20343;-88
2023/09/12 00:59:55;;;;;;;1.48;0.88;;;;;;;;;;2580477;23;20219;-88
2023/09/12 01:00:56;;;;;;;2.85;1.10;;;;;;;;;;2593570;22;20058;-88
2023/09/12 01:01:57;;;;;;;1.77;0.70;;;;;;;;;;2580794;23;20012;-88
2023/09/12 01:02:58;;;;;;;1.65;1.20;;;;;;;;;;2568487;23;20054;-88
2023/09/12 01:03:58;;;;;;;2.78;0.95;;;;;;;;;;2567934;23;20470;-88
2023/09/12 01:04:59;;;;;;;1.67;1.42;;;;;;;;;;2584684;22;20354;-87
2023/09/12 01:06:00;;;;;;;1.33;1.00;;;;;;;;;;2580288;23;20000;-88
2023/09/12 01:07:00;;;;;;;3.53;1.25;;;;;;;;;;2568098;23;20001;-88
2023/09/12 01:08:01;;;;;;;2.50;1.00;;;;;;;;;;2584465;23;19988;-89
2023/09/12 01:09:03;;;;;;;3.15;1.10;;;;;;;;;;2593459;22;19996;-88
2023/09/12 01:10:05;;;;;;;2.80;1.00;;;;;;;;;;2580529;23;20000;-90
2023/09/12 01:11:06;;;;;;;2.85;1.08;;;;;;;;;;2584506;23;19996;-88
2023/09/12 01:12:06;;;;;;;3.05;1.00;;;;;;;;;;2580470;23;20007;-89
2023/09/12 01:13:07;;;;;;;1.15;1.02;;;;;;;;;;2567913;23;20000;-89
2023/09/12 01:14:07;;;;;;;1.20;1.10;;;;;;;;;;2567990;23;20435;-90
2023/09/12 01:15:13;;;;;;;2.67;0.90;;;;;;;;;;2567668;23;20001;-90
2023/09/12 01:16:13;;;;;;;3.00;1.17;;;;;;;;;;2583783;23;20000;-90
2023/09/12 01:17:14;;;;;;;1.52;1.05;;;;;;;;;;2567722;23;20035;-90
2023/09/12 01:18:14;;;;;;;3.25;1.08;;;;;;;;;;2583775;23;20012;-90
2023/09/12 01:19:16;;;;;;;2.80;1.02;;;;;;;;;;2580381;23;20042;-89
2023/09/12 01:20:36;;;;;;;1.38;1.00;;;;;;;;;;2583861;23;20022;-90
2023/09/12 01:21:50;;;;;;;1.70;0.98;;;;;;;;;;2582967;22;20093;-90
2023/09/12 01:23:26;;;;;;;2.20;1.00;;;;;;;;;;2580702;23;20368;-90
2023/09/12 01:24:41;;;;;;;2.05;1.08;;;;;;;;;;2577032;23;20008;-90
2023/09/12 01:25:58;;;;;;;1.38;1.13;;;;;;;;;;2582781;22;20033;-90
2023/09/12 01:27:10;;;;;;;2.78;1.30;;;;;;;;;;2581944;22;20027;-90
2023/09/12 01:28:13;;;;;;;3.28;1.00;;;;;;;;;;2581201;23;20000;-90
2023/09/12 01:29:16;;;;;;;1.92;1.10;;;;;;;;;;2583824;23;20000;-90
2023/09/12 01:30:21;;;;;;;1.95;1.10;;;;;;;;;;2584524;22;20022;-90
2023/09/12 01:31:23;;;;;;;1.52;0.93;;;;;;;;;;2584103;22;20333;-89
2023/09/12 01:32:24;;;;;;;1.80;0.93;;;;;;;;;;2580400;23;20042;-89
2023/09/12 01:33:25;;;;;;;1.67;1.13;;;;;;;;;;2568016;23;20070;-90
2023/09/12 01:34:25;;;;;;;1.27;0.98;;;;;;;;;;2580571;23;20005;-89
2023/09/12 01:35:25;;;;;;;1.42;1.00;;;;;;;;;;2580502;23;20011;-90
2023/09/12 01:36:26;;;;;;;1.25;1.00;;;;;;;;;;2580075;23;20444;-90
2023/09/12 01:37:26;;;;;;;2.67;0.98;;;;;;;;;;2580349;23;20011;-90
2023/09/12 01:38:27;;;;;;;1.23;0.93;;;;;;;;;;2580487;23;20035;-90
2023/09/12 01:39:28;;;;;;;1.70;1.10;;;;;;;;;;2595241;22;20070;-90
2023/09/12 01:40:34;;;;;;;1.55;1.27;;;;;;;;;;2131849;23;10405584;-90
2023/09/12 01:41:40;;;;;;;4.95;1.25;;;;;;;;;;2568946;23;20096;-90
2023/09/12 01:42:48;;;;;;;2.92;1.60;;;;;;;;;;2569772;23;20084;-89
2023/09/12 01:43:50;;;;;;;1.98;1.70;;;;;;;;;;2569617;23;20092;-88
2023/09/12 01:44:55;;;;;;;1.25;1.10;;;;;;;;;;2568075;23;20040;-88
2023/09/12 01:45:59;;;;;;;2.55;1.08;;;;;;;;;;2580673;23;20374;-88
2023/09/12 01:47:03;;;;;;;2.05;1.17;;;;;;;;;;2580671;23;20136;-90
2023/09/12 01:48:06;;;;;;;2.90;1.75;;;;;;;;;;2584413;23;20444;-90
2023/09/12 01:49:08;;;;;;;1.95;1.23;;;;;;;;;;2585044;22;20075;-89
2023/09/12 01:50:12;;;;;;;2.05;1.20;;;;;;;;;;2580238;23;20037;-90
2023/09/12 01:51:15;;;;;;;2.72;1.10;;;;;;;;;;2568629;23;19988;-90
2023/09/12 01:52:16;;;;;;;2.22;1.20;;;;;;;;;;2583526;23;20362;-89
2023/09/12 01:53:17;;;;;;;2.00;1.00;;;;;;;;;;2580354;23;20011;-89
2023/09/12 01:54:19;;;;;;;1.95;1.10;;;;;;;;;;2567742;23;20311;-88
2023/09/12 01:55:20;;;;;;;4.72;1.25;;;;;;;;;;2568088;23;20059;-89
2023/09/12 01:56:21;;;;;;;2.47;1.00;;;;;;;;;;2568010;23;20451;-88
2023/09/12 01:57:22;;;;;;;0.90;0.70;;;;;;;;;;2583088;23;20012;-89
2023/09/12 01:58:25;;;;;;;5.03;1.10;;;;;;;;;;2580377;23;20014;-88
2023/09/12 01:59:25;;;;;;;3.63;1.27;;;;;;;;;;2582936;23;20016;-90
2023/09/12 02:00:26;;;;;;;3.40;1.20;;;;;;;;;;2591595;22;20011;-90
2023/09/12 02:01:27;;;;;;;2.63;1.10;;;;;;;;;;2592218;22;20066;-89
2023/09/12 02:02:28;;;;;;;2.10;1.45;;;;;;;;;;2140895;23;10000286;-89
2023/09/12 02:03:28;;;;;;;3.40;1.27;;;;;;;;;;2589732;22;20026;-90
2023/09/12 02:04:29;;;;;;;1.77;1.13;;;;;;;;;;2580693;23;20000;-91
2023/09/12 02:05:29;;;;;;;2.65;0.90;;;;;;;;;;2582638;23;20345;-88
2023/09/12 02:06:30;;;;;;;4.35;0.90;;;;;;;;;;2583343;22;20000;-89
2023/09/12 02:07:36;;;;;;;1.20;0.80;;;;;;;;;;2593327;22;20014;-88
2023/09/12 02:08:36;;;;;;;2.78;1.00;;;;;;;;;;2580484;23;20082;-90
2023/09/12 02:09:37;;;;;;;1.42;1.02;;;;;;;;;;2581844;23;20046;-90
2023/09/12 02:10:37;;;;;;;2.88;0.90;;;;;;;;;;2582601;22;20011;-89
2023/09/12 02:11:38;;;;;;;4.65;1.58;;;;;;;;;;2582288;22;19996;-90
2023/09/12 02:12:38;;;;;;;1.58;1.10;;;;;;;;;;2583033;22;20006;-90
2023/09/12 02:13:39;;;;;;;1.42;1.30;;;;;;;;;;2582565;22;19996;-90
2023/09/12 02:14:39;;;;;;;1.48;1.05;;;;;;;;;;2580591;23;20008;-88
2023/09/12 02:15:39;;;;;;;3.65;1.20;;;;;;;;;;2580200;23;20054;-90
2023/09/12 02:16:40;;;;;;;3.17;1.15;;;;;;;;;;2592741;22;20010;-88
2023/09/12 02:17:40;;;;;;;1.33;1.13;;;;;;;;;;2580263;23;20036;-90
2023/09/12 02:18:40;;;;;;;1.30;1.10;;;;;;;;;;2567626;23;20028;-90
2023/09/12 02:19:41;;;;;;;2.17;1.10;;;;;;;;;;2567464;23;20013;-89
2023/09/12 02:20:45;;;;;;;1.75;1.08;;;;;;;;;;2581189;23;20034;-90
2023/09/12 02:21:45;;;;;;;4.85;1.55;;;;;;;;;;2594043;22;19995;-90
2023/09/12 02:22:46;;;;;;;1.38;0.90;;;;;;;;;;2580618;23;20026;-89
2023/09/12 02:23:46;;;;;;;2.83;1.40;;;;;;;;;;2568208;23;20015;-88
2023/09/12 02:24:47;;;;;;;2.80;1.20;;;;;;;;;;2580203;23;20000;-88
2023/09/12 02:25:47;;;;;;;1.08;1.00;;;;;;;;;;2580189;23;19996;-88
2023/09/12 02:26:47;;;;;;;1.95;1.38;;;;;;;;;;2568063;23;20382;-89
2023/09/12 02:27:48;;;;;;;1.75;1.10;;;;;;;;;;2567871;23;20004;-89
2023/09/12 02:28:48;;;;;;;3.85;1.48;;;;;;;;;;2580911;23;20319;-89
2023/09/12 02:29:49;;;;;;;2.35;1.15;;;;;;;;;;2580051;23;20492;-87
2023/09/12 02:30:49;;;;;;;3.60;1.30;;;;;;;;;;2567826;23;20004;-89
2023/09/12 02:31:49;;;;;;;1.85;1.35;;;;;;;;;;2132069;23;10164069;-89
2023/09/12 02:32:50;;;;;;;4.50;1.13;;;;;;;;;;2567802;23;20119;-89
2023/09/12 02:33:50;;;;;;;2.60;1.05;;;;;;;;;;2568025;23;20043;-90
2023/09/12 02:34:53;;;;;;;1.98;0.98;;;;;;;;;;2580242;23;20000;-89
2023/09/12 02:35:53;;;;;;;1.20;0.93;;;;;;;;;;2580638;23;20577;-90
2023/09/12 02:36:53;;;;;;;2.50;1.30;;;;;;;;;;2592901;22;19999;-90
2023/09/12 02:37:54;;;;;;;3.00;1.50;;;;;;;;;;2579963;23;20022;-89
2023/09/12 02:38:54;;;;;;;4.57;1.13;;;;;;;;;;2580688;23;20000;-88
2023/09/12 02:39:54;;;;;;;8.48;1.65;;;;;;;;;;2580294;23;20061;-90
2023/09/12 02:40:55;;;;;;;3.90;1.55;;;;;;;;;;2567940;23;20028;-88
2023/09/12 02:41:56;;;;;;;5.18;1.35;;;;;;;;;;2579804;23;20042;-90
2023/09/12 02:42:56;;;;;;;4.18;1.20;;;;;;;;;;2593095;22;20384;-90
2023/09/12 02:43:56;;;;;;;1.45;1.08;;;;;;;;;;2580056;23;20028;-90
2023/09/12 02:44:57;;;;;;;1.88;1.10;;;;;;;;;;2580213;23;20000;-90
2023/09/12 02:45:57;;;;;;;2.85;1.23;;;;;;;;;;2579942;23;20000;-90
2023/09/12 02:46:57;;;;;;;2.42;1.30;;;;;;;;;;2580295;23;20007;-89
2023/09/12 02:47:58;;;;;;;2.95;1.17;;;;;;;;;;2580982;23;20458;-88
2023/09/12 02:48:58;;;;;;;3.17;1.10;;;;;;;;;;2581122;22;20295;-89
2023/09/12 02:49:59;;;;;;;1.30;1.15;;;;;;;;;;2579748;23;20256;-89
2023/09/12 02:50:59;;;;;;;1.35;1.10;;;;;;;;;;2580195;23;19992;-89
2023/09/12 02:51:59;;;;;;;2.80;1.17;;;;;;;;;;2580001;23;19996;-89
2023/09/12 02:53:00;;;;;;;2.58;1.35;;;;;;;;;;2567869;23;19993;-89
2023/09/12 02:54:00;;;;;;;2.78;1.05;;;;;;;;;;2567257;23;20005;-89
2023/09/12 02:55:01;;;;;;;1.23;1.08;;;;;;;;;;2580018;23;19999;-89
2023/09/12 02:56:01;;;;;;;3.33;1.30;;;;;;;;;;2579966;23;20458;-90
2023/09/12 02:57:02;;;;;;;3.38;1.27;;;;;;;;;;2584245;23;20397;-89
2023/09/12 02:58:03;;;;;;;3.10;1.40;;;;;;;;;;2579922;23;20339;-88
2023/09/12 02:59:04;;;;;;;2.08;1.55;;;;;;;;;;2583840;23;20609;-90
2023/09/12 03:00:08;;;;;;;3.72;1.50;;;;;;;;;;2585366;22;20081;-88
2023/09/12 03:01:15;;;;;;;3.47;1.20;;;;;;;;;;2580023;23;20351;-90
2023/09/12 03:02:15;;;;;;;4.07;1.63;;;;;;;;;;2583116;23;20341;-90
2023/09/12 03:03:16;;;;;;;1.70;1.20;;;;;;;;;;2584035;22;20129;-90
2023/09/12 03:04:17;;;;;;;2.13;1.30;;;;;;;;;;2580043;23;20023;-90
2023/09/12 03:05:17;;;;;;;1.65;1.35;;;;;;;;;;2580100;23;20000;-89
2023/09/12 03:06:18;;;;;;;2.08;1.35;;;;;;;;;;2567656;23;20001;-89
2023/09/12 03:07:18;;;;;;;4.22;1.33;;;;;;;;;;2582854;23;20012;-89
2023/09/12 03:08:19;;;;;;;2.47;1.35;;;;;;;;;;2580064;23;20035;-89
2023/09/12 03:09:19;;;;;;;2.40;1.30;;;;;;;;;;2579912;23;20026;-90
2023/09/12 03:10:19;;;;;;;1.58;1.30;;;;;;;;;;2595727;22;20031;-89
2023/09/12 03:11:20;;;;;;;1.88;1.30;;;;;;;;;;2580058;23;20027;-89
2023/09/12 03:12:20;;;;;;;2.30;2.00;;;;;;;;;;2582729;23;20007;-89
2023/09/12 03:13:20;;;;;;;1.95;1.40;;;;;;;;;;2583737;23;20367;-88
2023/09/12 03:14:21;;;;;;;3.60;1.10;;;;;;;;;;2580082;23;20007;-89
2023/09/12 03:15:21;;;;;;;1.80;1.40;;;;;;;;;;2580199;23;20007;-89
2023/09/12 03:16:23;;;;;;;2.95;1.48;;;;;;;;;;2580011;23;20000;-88
2023/09/12 03:17:24;;;;;;;3.60;1.45;;;;;;;;;;2567985;23;20035;-89
2023/09/12 03:18:24;;;;;;;3.03;1.45;;;;;;;;;;2582534;23;20031;-90
2023/09/12 03:19:25;;;;;;;1.60;1.30;;;;;;;;;;2583244;22;20004;-90
2023/09/12 03:20:25;;;;;;;2.72;1.40;;;;;;;;;;2583355;22;20011;-90
2023/09/12 03:21:25;;;;;;;2.58;1.40;;;;;;;;;;2580439;23;20003;-90
2023/09/12 03:22:26;;;;;;;3.20;1.73;;;;;;;;;;2132917;23;10452173;-88
2023/09/12 03:23:27;;;;;;;3.10;1.40;;;;;;;;;;2582562;23;20062;-89
2023/09/12 03:24:28;;;;;;;2.35;1.28;;;;;;;;;;2136122;23;10367035;-89
2023/09/12 03:25:29;;;;;;;3.15;1.33;;;;;;;;;;2583062;22;20057;-89
2023/09/12 03:26:29;;;;;;;2.00;1.40;;;;;;;;;;2583200;22;20492;-89
2023/09/12 03:27:29;;;;;;;2.38;1.48;;;;;;;;;;2580168;23;20031;-89
2023/09/12 03:28:30;;;;;;;2.20;1.67;;;;;;;;;;2580256;23;20027;-89
2023/09/12 03:29:31;;;;;;;1.95;1.77;;;;;;;;;;2592542;22;20022;-89
2023/09/12 03:30:35;;;;;;;2.15;1.50;;;;;;;;;;2581933;23;20122;-89
2023/09/12 03:31:36;;;;;;;2.50;1.70;;;;;;;;;;2582708;22;20003;-90
2023/09/12 03:32:36;;;;;;;2.10;1.45;;;;;;;;;;2139463;22;10249821;-90
2023/09/12 03:33:37;;;;;;;2.92;1.65;;;;;;;;;;2580073;23;19996;-90
2023/09/12 03:34:37;;;;;;;3.85;1.80;;;;;;;;;;2581778;23;20115;-90
2023/09/12 03:35:38;;;;;;;3.28;1.52;;;;;;;;;;2582649;22;20173;-90
2023/09/12 03:36:38;;;;;;;4.05;1.73;;;;;;;;;;2582432;22;20378;-90
2023/09/12 03:37:42;;;;;;;3.10;2.28;;;;;;;;;;2582281;22;20003;-89
2023/09/12 03:38:43;;;;;;;2.50;1.60;;;;;;;;;;2592718;22;20118;-90
2023/09/12 03:39:43;;;;;;;4.80;1.63;;;;;;;;;;2593956;22;20063;-90
2023/09/12 03:40:43;;;;;;;2.25;1.83;;;;;;;;;;2586464;22;20039;-88
2023/09/12 03:41:44;;;;;;;1.70;1.60;;;;;;;;;;2563554;23;20025;-90
2023/09/12 03:42:44;;;;;;;3.58;1.85;;;;;;;;;;2574722;23;19992;-89
2023/09/12 03:43:44;;;;;;;3.70;1.80;;;;;;;;;;2573387;23;20062;-88
2023/09/12 03:44:45;;;;;;;2.17;1.40;;;;;;;;;;2574232;23;20094;-91
2023/09/12 03:45:45;;;;;;;3.17;1.75;;;;;;;;;;2574904;23;19992;-90
2023/09/12 03:46:45;;;;;;;1.60;1.50;;;;;;;;;;2586907;22;20000;-90
2023/09/12 03:47:46;;;;;;;1.80;1.70;;;;;;;;;;2587095;22;20030;-92
2023/09/12 03:48:47;;;;;;;3.53;2.00;;;;;;;;;;2573963;23;20020;-89
2023/09/12 03:49:47;;;;;;;3.30;1.48;;;;;;;;;;2561673;23;20004;-91
2023/09/12 03:50:48;;;;;;;2.38;1.80;;;;;;;;;;2561063;23;20012;-91
2023/09/12 03:51:48;;;;;;;2.42;1.90;;;;;;;;;;2559821;23;20155;-92
2023/09/12 03:52:48;;;;;;;2.33;1.70;;;;;;;;;;2555772;23;20002;-91
2023/09/12 03:53:49;;;;;;;1.85;1.60;;;;;;;;;;2568675;23;20028;-92
2023/09/12 03:54:50;;;;;;;2.33;1.40;;;;;;;;;;2568478;23;20008;-92
2023/09/12 03:55:50;;;;;;;2.58;1.60;;;;;;;;;;2568214;23;20415;-92
2023/09/12 03:56:51;;;;;;;2.17;1.50;;;;;;;;;;2568529;23;20005;-92
2023/09/12 03:57:51;;;;;;;3.55;1.90;;;;;;;;;;2555827;23;20001;-92
2023/09/12 03:58:53;;;;;;;4.60;1.60;;;;;;;;;;2556104;23;20008;-92
2023/09/12 03:59:54;;;;;;;2.47;1.52;;;;;;;;;;2568776;23;20307;-92
2023/09/12 04:00:54;;;;;;;4.30;2.00;;;;;;;;;;2568307;23;20083;-91
2023/09/12 04:01:54;;;;;;;5.25;1.90;;;;;;;;;;2568543;23;20047;-91
2023/09/12 04:02:55;;;;;;;4.85;1.40;;;;;;;;;;2568349;23;20001;-92
2023/09/12 04:03:55;;;;;;;2.83;1.55;;;;;;;;;;2556244;23;20324;-91
2023/09/12 04:04:59;;;;;;;2.50;1.55;;;;;;;;;;2555886;23;20016;-91
2023/09/12 04:05:59;;;;;;;3.35;1.65;;;;;;;;;;2568236;23;20004;-91
2023/09/12 04:06:59;;;;;;;4.80;2.28;;;;;;;;;;2568410;23;20443;-91
2023/09/12 04:08:00;;;;;;;4.43;1.80;;;;;;;;;;2580742;23;19999;-91
2023/09/12 04:09:00;;;;;;;3.38;1.80;;;;;;;;;;2568088;23;20004;-92
2023/09/12 04:10:01;;;;;;;2.95;2.42;;;;;;;;;;2559612;23;20377;-91
2023/09/12 04:11:01;;;;;;;3.42;1.90;;;;;;;;;;2555493;23;20028;-91
2023/09/12 04:12:02;;;;;;;4.78;2.45;;;;;;;;;;2555689;23;20347;-91
2023/09/12 04:13:02;;;;;;;4.75;2.10;;;;;;;;;;2567871;23;20403;-91
2023/09/12 04:14:03;;;;;;;3.97;2.33;;;;;;;;;;2568244;23;20051;-91
2023/09/12 04:15:06;;;;;;;2.92;1.90;;;;;;;;;;2568356;23;19997;-91
2023/09/12 04:16:06;;;;;;;6.28;2.03;;;;;;;;;;2572242;23;20071;-91
2023/09/12 04:17:08;;;;;;;7.28;2.10;;;;;;;;;;2581109;22;19992;-91
2023/09/12 04:18:08;;;;;;;3.10;1.90;;;;;;;;;;2580541;22;19996;-91
2023/09/12 04:19:08;;;;;;;2.83;2.15;;;;;;;;;;2555547;23;20075;-90
2023/09/12 04:20:13;;;;;;;2.20;2.00;;;;;;;;;;2556041;23;20032;-90
2023/09/12 04:21:14;;;;;;;2.40;2.05;;;;;;;;;;2559524;23;20004;-89
2023/09/12 04:22:14;;;;;;;5.45;2.45;;;;;;;;;;2556487;23;19997;-89
2023/09/12 04:23:14;;;;;;;3.17;2.08;;;;;;;;;;2568917;23;20062;-91
2023/09/12 04:24:17;;;;;;;3.25;2.22;;;;;;;;;;2556554;23;20001;-91
2023/09/12 04:25:19;;;;;;;6.78;2.25;;;;;;;;;;2557107;23;20009;-92
2023/09/12 04:26:20;;;;;;;5.07;1.92;;;;;;;;;;2571800;23;20045;-92
2023/09/12 04:27:20;;;;;;;4.05;2.20;;;;;;;;;;2581701;22;20343;-92
2023/09/12 04:28:21;;;;;;;5.47;2.75;;;;;;;;;;2589274;22;20000;-92
2023/09/12 04:29:21;;;;;;;6.10;2.08;;;;;;;;;;2583662;23;20023;-93
2023/09/12 04:30:21;;;;;;;4.22;1.92;;;;;;;;;;2580033;23;20031;-91
2023/09/12 04:31:22;;;;;;;2.40;1.60;;;;;;;;;;2560632;23;20001;-92
2023/09/12 04:32:23;;;;;;;3.03;1.52;;;;;;;;;;2556768;23;20001;-93
2023/09/12 04:33:23;;;;;;;2.67;1.77;;;;;;;;;;2557050;23;20012;-92
2023/09/12 04:34:24;;;;;;;2.80;2.08;;;;;;;;;;2568942;23;20094;-92
2023/09/12 04:35:25;;;;;;;6.80;1.90;;;;;;;;;;2568937;23;20039;-92
2023/09/12 04:36:25;;;;;;;2.45;1.80;;;;;;;;;;2557224;23;20015;-91
2023/09/12 04:37:25;;;;;;;2.85;1.88;;;;;;;;;;2570086;23;20532;-92
2023/09/12 04:38:26;;;;;;;3.45;1.95;;;;;;;;;;2569641;23;20036;-91
2023/09/12 04:39:27;;;;;;;3.20;2.00;;;;;;;;;;2569194;23;20008;-92
2023/09/12 04:40:27;;;;;;;5.22;2.15;;;;;;;;;;2569345;23;20741;-92
2023/09/12 04:41:27;;;;;;;4.13;2.00;;;;;;;;;;2569002;23;20005;-92
2023/09/12 04:42:28;;;;;;;4.90;2.13;;;;;;;;;;2583655;22;20402;-93
2023/09/12 04:43:28;;;;;;;3.38;1.92;;;;;;;;;;2568730;23;20032;-93
2023/09/12 04:44:29;;;;;;;8.65;2.60;;;;;;;;;;2556454;23;20084;-93
2023/09/12 04:45:29;;;;;;;5.72;2.22;;;;;;;;;;2556163;23;20432;-92
2023/09/12 04:46:29;;;;;;;3.67;2.38;;;;;;;;;;2571078;23;20004;-92
2023/09/12 04:47:30;;;;;;;7.13;2.63;;;;;;;;;;2568569;23;20427;-91
2023/09/12 04:48:31;;;;;;;4.13;2.35;;;;;;;;;;2568550;23;20070;-92
2023/09/12 04:49:31;;;;;;;5.03;2.88;;;;;;;;;;2568867;23;20011;-92
2023/09/12 04:50:31;;;;;;;5.00;2.63;;;;;;;;;;2556526;23;20016;-91
2023/09/12 04:51:32;;;;;;;6.13;2.92;;;;;;;;;;2570762;23;20000;-91
2023/09/12 04:52:32;;;;;;;7.40;3.15;;;;;;;;;;2571521;23;20072;-91
2023/09/12 04:53:36;;;;;;;6.97;3.70;;;;;;;;;;2571256;23;20001;-91
2023/09/12 04:54:36;;;;;;;5.38;3.25;;;;;;;;;;2568507;23;20070;-92
2023/09/12 04:55:37;;;;;;;5.55;3.50;;;;;;;;;;2568764;23;20138;-91
2023/09/12 04:56:37;;;;;;;6.18;3.70;;;;;;;;;;2582511;22;20008;-91
2023/09/12 04:57:37;;;;;;;9.38;3.80;;;;;;;;;;2568624;23;20009;-91
2023/09/12 04:58:38;;;;;;;6.68;3.60;;;;;;;;;;2570076;23;20068;-91
2023/09/12 04:59:38;;;;;;;5.97;3.78;;;;;;;;;;2570644;23;20028;-91
2023/09/12 05:00:40;;;;;;;6.07;3.47;;;;;;;;;;2568309;23;20214;-92
2023/09/12 05:01:41;;;;;;;6.43;3.55;;;;;;;;;;2569867;23;20008;-90
2023/09/12 05:02:41;;;;;;;7.38;3.40;;;;;;;;;;2571319;23;20004;-90
2023/09/12 05:03:41;;;;;;;8.07;3.78;;;;;;;;;;2580880;22;20428;-92
2023/09/12 05:04:42;;;;;;;5.13;3.40;;;;;;;;;;2582671;22;20027;-93
2023/09/12 05:05:45;;;;;;;5.15;2.72;;;;;;;;;;2568412;23;20347;-92
2023/09/12 05:06:46;;;;;;;7.18;3.28;;;;;;;;;;2556777;23;20001;-92
2023/09/12 05:07:47;;;;;;;7.70;3.30;;;;;;;;;;2568743;23;20067;-93
2023/09/12 05:08:47;;;;;;;8.05;3.28;;;;;;;;;;2569386;23;20096;-92
2023/09/12 05:09:48;;;;;;;4.63;2.88;;;;;;;;;;2570671;23;20030;-92
2023/09/12 05:10:49;;;;;;;4.90;2.88;;;;;;;;;;2568641;23;20008;-93
2023/09/12 05:11:50;;;;;;;6.13;3.50;;;;;;;;;;2569156;23;20022;-92
2023/09/12 05:12:50;;;;;;;4.53;3.03;;;;;;;;;;2581242;22;20000;-93
2023/09/12 05:13:50;;;;;;;6.22;3.15;;;;;;;;;;2569450;23;20092;-92
2023/09/12 05:14:51;;;;;;;8.57;4.10;;;;;;;;;;2569625;23;20036;-93
2023/09/12 05:15:51;;;;;;;9.20;4.15;;;;;;;;;;2568916;23;20077;-92
2023/09/12 05:16:53;;;;;;;11.43;4.60;;;;;;;;;;2569181;23;20050;-91
2023/09/12 05:17:53;;;;;;;10.23;4.88;;;;;;;;;;2582123;22;20004;-92
2023/09/12 05:18:54;;;;;;;9.32;3.88;;;;;;;;;;2581772;22;20032;-92
2023/09/12 05:19:55;;;;;;;9.20;4.78;;;;;;;;;;2569064;23;20013;-93
2023/09/12 05:20:55;;;;;;;11.02;4.65;;;;;;;;;;2569283;23;20043;-92
2023/09/12 05:21:56;;;;;;;11.13;4.63;;;;;;;;;;2569222;23;20426;-92
2023/09/12 05:22:56;;;;;;;9.45;4.45;;;;;;;;;;2569289;23;20099;-92
2023/09/12 05:23:56;;;;;;;9.23;5.25;;;;;;;;;;2569243;23;20373;-92
2023/09/12 05:24:57;;;;;;;8.88;4.13;;;;;;;;;;2581794;22;20031;-93
2023/09/12 05:25:57;;;;;;;9.93;4.63;;;;;;;;;;2581790;23;20086;-93
2023/09/12 05:26:57;;;;;;;9.95;4.47;;;;;;;;;;2569047;23;20001;-93
2023/09/12 05:27:58;;;;;;;8.95;3.88;;;;;;;;;;2556832;23;20095;-92
2023/09/12 05:28:58;;;;;;;7.60;4.03;;;;;;;;;;2568814;23;20000;-92
2023/09/12 05:29:59;;;;;;;10.35;4.45;;;;;;;;;;2569056;23;20004;-93
2023/09/12 05:30:59;;;;;;;10.93;4.88;;;;;;;;;;2569155;23;19997;-92
2023/09/12 05:31:59;;;;;;;9.98;3.40;;;;;;;;;;2556293;23;20048;-92
2023/09/12 05:33:00;;;;;;;6.20;4.10;;;;;;;;;;2568922;23;19992;-93
2023/09/12 05:34:00;;;;;;;7.30;3.30;;;;;;;;;;2569050;23;20544;-93
2023/09/12 05:35:01;;;;;;;7.40;3.58;;;;;;;;;;2556708;23;20015;-92
2023/09/12 05:36:02;;;;;;;11.13;3.50;;;;;;;;;;2556418;23;20025;-92
2023/09/12 05:37:03;;;;;;;8.73;3.63;;;;;;;;;;2573046;23;20485;-92
2023/09/12 05:38:03;;;;;;;7.70;3.67;;;;;;;;;;2568826;23;20027;-92
2023/09/12 05:39:04;;;;;;;6.30;3.33;;;;;;;;;;2556621;23;20175;-92
2023/09/12 05:40:05;;;;;;;7.82;3.45;;;;;;;;;;2556437;23;19997;-92
2023/09/12 05:41:06;;;;;;;6.78;3.20;;;;;;;;;;2572779;23;20437;-92
2023/09/12 05:42:06;;;;;;;5.18;3.20;;;;;;;;;;2581418;22;19992;-90
2023/09/12 05:43:07;;;;;;;4.82;3.10;;;;;;;;;;2581420;22;19999;-92
2023/09/12 05:44:07;;;;;;;7.05;2.90;;;;;;;;;;2569193;23;20071;-92
2023/09/12 05:45:09;;;;;;;4.72;2.72;;;;;;;;;;2556706;23;20009;-89
2023/09/12 05:46:09;;;;;;;5.25;2.72;;;;;;;;;;2572496;23;19997;-92
2023/09/12 05:47:09;;;;;;;6.68;2.50;;;;;;;;;;2581864;22;19988;-93
2023/09/12 05:48:10;;;;;;;4.47;2.53;;;;;;;;;;2585083;22;20022;-92
2023/09/12 05:49:10;;;;;;;7.38;2.80;;;;;;;;;;2569381;23;20015;-91
2023/09/12 05:50:11;;;;;;;4.78;2.63;;;;;;;;;;2556793;23;20016;-92
2023/09/12 05:51:12;;;;;;;5.50;2.58;;;;;;;;;;2572533;23;19999;-92
2023/09/12 05:52:12;;;;;;;7.10;2.85;;;;;;;;;;2581735;22;20016;-92
2023/09/12 05:53:12;;;;;;;8.15;3.00;;;;;;;;;;2569146;23;20067;-92
2023/09/12 05:54:16;;;;;;;8.73;2.53;;;;;;;;;;2556579;23;20000;-92
2023/09/12 05:55:17;;;;;;;7.85;3.05;;;;;;;;;;2572253;23;20386;-92
2023/09/12 05:56:18;;;;;;;5.18;2.33;;;;;;;;;;2572882;23;19996;-92
2023/09/12 05:57:18;;;;;;;5.65;2.67;;;;;;;;;;2568936;23;20418;-92
2023/09/12 05:58:18;;;;;;;4.18;2.42;;;;;;;;;;2556615;23;20012;-92
2023/09/12 05:59:19;;;;;;;6.38;3.20;;;;;;;;;;2556301;23;20017;-91
2023/09/12 06:00:20;;;;;;;7.22;3.17;;;;;;;;;;2571861;23;20427;-92
2023/09/12 06:01:20;;;;;;;8.65;2.60;;;;;;;;;;2581616;23;20000;-91
2023/09/12 06:02:23;;;;;;;5.97;2.67;;;;;;;;;;2223725;23;10133382;-92
2023/09/12 06:03:23;;;;;;;7.50;2.88;;;;;;;;;;2571325;23;20280;-91
2023/09/12 06:04:23;;;;;;;7.10;2.80;;;;;;;;;;2581489;22;20035;-93
2023/09/12 06:05:24;;;;;;;4.45;2.60;;;;;;;;;;2568801;23;20074;-92
2023/09/12 06:06:24;;;;;;;5.40;2.63;;;;;;;;;;2571744;23;20395;-93